sensor_id;sensor_type;location;lat;lon;timestamp;P1;durP1;ratioP1;P2;durP2;ratioP2
26965;SDS011;14522;52.068;4.414;2022-10-31T00:02:12;1.77;;;0.68;;
26965;SDS011;14522;52.068;4.414;2022-10-31T00:04:38;3.03;;;0.68;;
26965;SDS011;14522;52.068;4.414;2022-10-31T00:07:04;4.60;;;1.33;;
26965;SDS011;14522;52.068;4.414;2022-10-31T00:09:31;1.80;;;0.73;;
26965;SDS011;14522;52.068;4.414;2022-10-31T00:11:57;5.85;;;1.52;;
26965;SDS011;14522;52.068;4.414;2022-10-31T00:14:23;2.38;;;0.80;;
26965;SDS011;14522;52.068;4.414;2022-10-31T00:16:50;1.48;;;0.60;;
26965;SDS011;14522;52.068;4.414;2022-10-31T00:19:16;3.42;;;0.80;;
26965;SDS011;14522;52.068;4.414;2022-10-31T00:21:42;1.55;;;0.85;;
26965;SDS011;14522;52.068;4.414;2022-10-31T00:24:09;3.22;;;0.85;;
26965;SDS011;14522;52.068;4.414;2022-10-31T00:26:36;1.15;;;0.60;;
26965;SDS011;14522;52.068;4.414;2022-10-31T00:29:02;3.50;;;0.82;;
26965;SDS011;14522;52.068;4.414;2022-10-31T00:31:29;1.83;;;0.77;;
26965;SDS011;14522;52.068;4.414;2022-10-31T00:33:55;1.42;;;0.70;;
26965;SDS011;14522;52.068;4.414;2022-10-31T00:36:21;2.33;;;0.80;;
26965;SDS011;14522;52.068;4.414;2022-10-31T00:38:48;1.30;;;0.55;;
26965;SDS011;14522;52.068;4.414;2022-10-31T00:41:15;1.60;;;1.08;;
26965;SDS011;14522;52.068;4.414;2022-10-31T00:43:42;2.08;;;0.70;;
26965;SDS011;14522;52.068;4.414;2022-10-31T00:46:09;0.40;;;0.40;;
26965;SDS011;14522;52.068;4.414;2022-10-31T00:48:36;2.63;;;1.17;;
26965;SDS011;14522;52.068;4.414;2022-10-31T00:51:02;3.15;;;1.38;;
26965;SDS011;14522;52.068;4.414;2022-10-31T00:53:28;3.60;;;1.10;;
26965;SDS011;14522;52.068;4.414;2022-10-31T00:55:55;1.85;;;1.08;;
26965;SDS011;14522;52.068;4.414;2022-10-31T00:58:21;2.38;;;0.93;;
26965;SDS011;14522;52.068;4.414;2022-10-31T01:00:48;1.95;;;1.10;;
26965;SDS011;14522;52.068;4.414;2022-10-31T01:03:21;2.85;;;0.98;;
26965;SDS011;14522;52.068;4.414;2022-10-31T01:05:58;2.58;;;1.08;;
26965;SDS011;14522;52.068;4.414;2022-10-31T01:08:25;1.75;;;1.05;;
26965;SDS011;14522;52.068;4.414;2022-10-31T01:10:58;2.40;;;1.20;;
26965;SDS011;14522;52.068;4.414;2022-10-31T01:13:25;1.85;;;1.17;;
26965;SDS011;14522;52.068;4.414;2022-10-31T01:15:57;2.33;;;1.15;;
26965;SDS011;14522;52.068;4.414;2022-10-31T01:18:24;3.13;;;1.25;;
26965;SDS011;14522;52.068;4.414;2022-10-31T01:20:58;1.65;;;1.00;;
26965;SDS011;14522;52.068;4.414;2022-10-31T01:23:24;2.45;;;0.80;;
26965;SDS011;14522;52.068;4.414;2022-10-31T01:25:58;1.65;;;0.90;;
26965;SDS011;14522;52.068;4.414;2022-10-31T01:28:24;2.28;;;0.82;;
26965;SDS011;14522;52.068;4.414;2022-10-31T01:30:59;3.00;;;0.63;;
26965;SDS011;14522;52.068;4.414;2022-10-31T01:33:26;2.25;;;0.85;;
26965;SDS011;14522;52.068;4.414;2022-10-31T01:35:52;2.15;;;0.82;;
26965;SDS011;14522;52.068;4.414;2022-10-31T01:38:18;0.77;;;0.60;;
26965;SDS011;14522;52.068;4.414;2022-10-31T01:40:45;2.78;;;1.20;;
26965;SDS011;14522;52.068;4.414;2022-10-31T01:43:12;2.28;;;1.35;;
26965;SDS011;14522;52.068;4.414;2022-10-31T01:45:39;3.35;;;1.10;;
26965;SDS011;14522;52.068;4.414;2022-10-31T01:48:07;2.45;;;1.00;;
26965;SDS011;14522;52.068;4.414;2022-10-31T01:50:38;1.52;;;1.00;;
26965;SDS011;14522;52.068;4.414;2022-10-31T01:53:05;1.40;;;0.50;;
26965;SDS011;14522;52.068;4.414;2022-10-31T01:55:33;1.30;;;0.80;;
26965;SDS011;14522;52.068;4.414;2022-10-31T01:58:04;1.65;;;0.90;;
26965;SDS011;14522;52.068;4.414;2022-10-31T02:00:32;2.60;;;1.33;;
26965;SDS011;14522;52.068;4.414;2022-10-31T02:02:58;3.78;;;1.10;;
26965;SDS011;14522;52.068;4.414;2022-10-31T02:05:27;3.78;;;1.40;;
26965;SDS011;14522;52.068;4.414;2022-10-31T02:08:04;3.75;;;0.85;;
26965;SDS011;14522;52.068;4.414;2022-10-31T02:10:33;1.58;;;0.55;;
26965;SDS011;14522;52.068;4.414;2022-10-31T02:13:01;3.75;;;1.20;;
26965;SDS011;14522;52.068;4.414;2022-10-31T02:15:28;1.73;;;1.20;;
26965;SDS011;14522;52.068;4.414;2022-10-31T02:17:56;2.00;;;1.20;;
26965;SDS011;14522;52.068;4.414;2022-10-31T02:20:24;1.30;;;0.52;;
26965;SDS011;14522;52.068;4.414;2022-10-31T02:33:25;2.30;;;1.40;;
26965;SDS011;14522;52.068;4.414;2022-10-31T02:38:26;2.40;;;1.60;;
26965;SDS011;14522;52.068;4.414;2022-10-31T02:43:43;2.67;;;1.40;;
26965;SDS011;14522;52.068;4.414;2022-10-31T02:46:18;2.60;;;1.48;;
26965;SDS011;14522;52.068;4.414;2022-10-31T02:48:46;3.72;;;1.65;;
26965;SDS011;14522;52.068;4.414;2022-10-31T02:51:13;2.58;;;1.38;;
26965;SDS011;14522;52.068;4.414;2022-10-31T02:53:41;2.60;;;1.40;;
26965;SDS011;14522;52.068;4.414;2022-10-31T02:56:15;2.45;;;1.38;;
26965;SDS011;14522;52.068;4.414;2022-10-31T02:58:54;4.40;;;2.15;;
26965;SDS011;14522;52.068;4.414;2022-10-31T03:06:32;1.42;;;0.93;;
26965;SDS011;14522;52.068;4.414;2022-10-31T03:09:11;1.52;;;1.08;;
26965;SDS011;14522;52.068;4.414;2022-10-31T03:11:42;1.92;;;1.00;;
26965;SDS011;14522;52.068;4.414;2022-10-31T03:14:11;2.30;;;1.17;;
26965;SDS011;14522;52.068;4.414;2022-10-31T03:16:45;3.70;;;1.20;;
26965;SDS011;14522;52.068;4.414;2022-10-31T03:19:16;2.47;;;1.05;;
26965;SDS011;14522;52.068;4.414;2022-10-31T03:21:50;4.43;;;1.60;;
26965;SDS011;14522;52.068;4.414;2022-10-31T03:24:18;2.88;;;1.40;;
26965;SDS011;14522;52.068;4.414;2022-10-31T03:26:46;0.90;;;0.80;;
26965;SDS011;14522;52.068;4.414;2022-10-31T03:29:14;3.28;;;1.40;;
26965;SDS011;14522;52.068;4.414;2022-10-31T03:31:46;3.95;;;2.15;;
26965;SDS011;14522;52.068;4.414;2022-10-31T03:34:14;4.93;;;1.73;;
26965;SDS011;14522;52.068;4.414;2022-10-31T03:36:41;4.85;;;1.90;;
26965;SDS011;14522;52.068;4.414;2022-10-31T03:39:10;3.80;;;1.90;;
26965;SDS011;14522;52.068;4.414;2022-10-31T03:41:41;3.00;;;2.00;;
26965;SDS011;14522;52.068;4.414;2022-10-31T03:44:10;2.50;;;1.73;;
26965;SDS011;14522;52.068;4.414;2022-10-31T03:46:38;3.40;;;2.10;;
26965;SDS011;14522;52.068;4.414;2022-10-31T03:49:05;1.75;;;0.93;;
26965;SDS011;14522;52.068;4.414;2022-10-31T03:51:33;3.28;;;1.40;;
26965;SDS011;14522;52.068;4.414;2022-10-31T03:57:22;3.33;;;1.73;;
26965;SDS011;14522;52.068;4.414;2022-10-31T03:59:42;3.72;;;1.48;;
26965;SDS011;14522;52.068;4.414;2022-10-31T04:02:15;2.28;;;1.63;;
26965;SDS011;14522;52.068;4.414;2022-10-31T04:04:43;1.23;;;1.08;;
26965;SDS011;14522;52.068;4.414;2022-10-31T04:07:10;3.72;;;1.77;;
26965;SDS011;14522;52.068;4.414;2022-10-31T04:09:38;1.92;;;1.45;;
26965;SDS011;14522;52.068;4.414;2022-10-31T04:12:06;3.47;;;1.80;;
26965;SDS011;14522;52.068;4.414;2022-10-31T04:14:35;3.28;;;1.80;;
26965;SDS011;14522;52.068;4.414;2022-10-31T04:17:03;3.83;;;1.98;;
26965;SDS011;14522;52.068;4.414;2022-10-31T04:19:32;4.65;;;2.58;;
26965;SDS011;14522;52.068;4.414;2022-10-31T04:21:58;3.65;;;1.83;;
26965;SDS011;14522;52.068;4.414;2022-10-31T04:24:24;6.00;;;2.53;;
26965;SDS011;14522;52.068;4.414;2022-10-31T04:26:51;2.70;;;1.98;;
26965;SDS011;14522;52.068;4.414;2022-10-31T04:29:17;2.67;;;1.95;;
26965;SDS011;14522;52.068;4.414;2022-10-31T04:31:43;1.50;;;1.17;;
26965;SDS011;14522;52.068;4.414;2022-10-31T04:34:10;3.55;;;1.88;;
26965;SDS011;14522;52.068;4.414;2022-10-31T04:36:36;2.25;;;1.17;;
26965;SDS011;14522;52.068;4.414;2022-10-31T04:39:02;4.53;;;2.45;;
26965;SDS011;14522;52.068;4.414;2022-10-31T04:41:29;3.92;;;1.95;;
26965;SDS011;14522;52.068;4.414;2022-10-31T04:43:55;4.35;;;2.55;;
26965;SDS011;14522;52.068;4.414;2022-10-31T04:46:21;2.00;;;1.50;;
26965;SDS011;14522;52.068;4.414;2022-10-31T04:48:48;3.75;;;2.28;;
26965;SDS011;14522;52.068;4.414;2022-10-31T04:51:14;5.05;;;2.53;;
26965;SDS011;14522;52.068;4.414;2022-10-31T04:53:40;4.60;;;3.00;;
26965;SDS011;14522;52.068;4.414;2022-10-31T04:56:07;3.72;;;2.45;;
26965;SDS011;14522;52.068;4.414;2022-10-31T04:58:33;2.83;;;2.00;;
26965;SDS011;14522;52.068;4.414;2022-10-31T05:00:59;3.38;;;2.08;;
26965;SDS011;14522;52.068;4.414;2022-10-31T05:03:26;2.95;;;1.60;;
26965;SDS011;14522;52.068;4.414;2022-10-31T05:05:52;2.17;;;1.27;;
26965;SDS011;14522;52.068;4.414;2022-10-31T05:08:18;9.38;;;3.67;;
26965;SDS011;14522;52.068;4.414;2022-10-31T05:10:45;3.10;;;2.05;;
26965;SDS011;14522;52.068;4.414;2022-10-31T05:13:11;6.63;;;3.17;;
26965;SDS011;14522;52.068;4.414;2022-10-31T05:15:37;4.50;;;3.25;;
26965;SDS011;14522;52.068;4.414;2022-10-31T05:18:04;6.15;;;3.22;;
26965;SDS011;14522;52.068;4.414;2022-10-31T05:20:30;5.88;;;3.90;;
26965;SDS011;14522;52.068;4.414;2022-10-31T05:22:57;3.78;;;2.20;;
26965;SDS011;14522;52.068;4.414;2022-10-31T05:25:25;3.20;;;2.28;;
26965;SDS011;14522;52.068;4.414;2022-10-31T05:27:52;3.90;;;2.67;;
26965;SDS011;14522;52.068;4.414;2022-10-31T05:30:20;3.88;;;2.85;;
26965;SDS011;14522;52.068;4.414;2022-10-31T05:32:48;5.03;;;3.92;;
26965;SDS011;14522;52.068;4.414;2022-10-31T05:35:16;3.67;;;2.00;;
26965;SDS011;14522;52.068;4.414;2022-10-31T05:37:43;3.60;;;2.20;;
26965;SDS011;14522;52.068;4.414;2022-10-31T05:40:10;2.10;;;1.70;;
26965;SDS011;14522;52.068;4.414;2022-10-31T05:42:40;3.42;;;2.25;;
26965;SDS011;14522;52.068;4.414;2022-10-31T05:45:07;3.03;;;2.00;;
26965;SDS011;14522;52.068;4.414;2022-10-31T05:47:34;3.83;;;2.55;;
26965;SDS011;14522;52.068;4.414;2022-10-31T05:50:00;3.42;;;2.30;;
26965;SDS011;14522;52.068;4.414;2022-10-31T05:52:26;2.28;;;1.77;;
26965;SDS011;14522;52.068;4.414;2022-10-31T05:54:52;5.35;;;2.80;;
26965;SDS011;14522;52.068;4.414;2022-10-31T05:57:19;1.38;;;1.00;;
26965;SDS011;14522;52.068;4.414;2022-10-31T05:59:45;2.50;;;1.60;;
26965;SDS011;14522;52.068;4.414;2022-10-31T06:02:17;7.35;;;3.50;;
26965;SDS011;14522;52.068;4.414;2022-10-31T06:04:43;4.63;;;3.25;;
26965;SDS011;14522;52.068;4.414;2022-10-31T06:07:10;4.60;;;2.78;;
26965;SDS011;14522;52.068;4.414;2022-10-31T06:09:36;4.00;;;2.58;;
26965;SDS011;14522;52.068;4.414;2022-10-31T06:12:02;4.45;;;2.22;;
26965;SDS011;14522;52.068;4.414;2022-10-31T06:14:29;2.80;;;2.00;;
26965;SDS011;14522;52.068;4.414;2022-10-31T06:16:55;4.30;;;2.25;;
26965;SDS011;14522;52.068;4.414;2022-10-31T06:19:22;3.42;;;1.55;;
26965;SDS011;14522;52.068;4.414;2022-10-31T06:21:48;5.22;;;1.85;;
26965;SDS011;14522;52.068;4.414;2022-10-31T06:24:14;2.70;;;1.80;;
26965;SDS011;14522;52.068;4.414;2022-10-31T06:26:41;2.30;;;1.60;;
26965;SDS011;14522;52.068;4.414;2022-10-31T06:29:07;4.00;;;2.25;;
26965;SDS011;14522;52.068;4.414;2022-10-31T06:31:33;2.22;;;1.70;;
26965;SDS011;14522;52.068;4.414;2022-10-31T06:34:00;2.88;;;1.65;;
26965;SDS011;14522;52.068;4.414;2022-10-31T06:36:27;2.65;;;1.55;;
26965;SDS011;14522;52.068;4.414;2022-10-31T06:38:54;3.97;;;2.30;;
26965;SDS011;14522;52.068;4.414;2022-10-31T06:41:20;4.93;;;2.95;;
26965;SDS011;14522;52.068;4.414;2022-10-31T06:43:46;2.03;;;1.40;;
26965;SDS011;14522;52.068;4.414;2022-10-31T06:46:13;4.05;;;2.03;;
26965;SDS011;14522;52.068;4.414;2022-10-31T06:48:42;4.43;;;1.75;;
26965;SDS011;14522;52.068;4.414;2022-10-31T06:51:09;2.80;;;1.55;;
26965;SDS011;14522;52.068;4.414;2022-10-31T06:53:35;4.93;;;1.80;;
26965;SDS011;14522;52.068;4.414;2022-10-31T06:56:01;2.65;;;1.50;;
26965;SDS011;14522;52.068;4.414;2022-10-31T06:58:28;2.70;;;1.77;;
26965;SDS011;14522;52.068;4.414;2022-10-31T07:00:54;3.67;;;2.00;;
26965;SDS011;14522;52.068;4.414;2022-10-31T07:03:21;2.42;;;1.80;;
26965;SDS011;14522;52.068;4.414;2022-10-31T07:05:47;2.83;;;1.70;;
26965;SDS011;14522;52.068;4.414;2022-10-31T07:08:13;3.42;;;2.10;;
26965;SDS011;14522;52.068;4.414;2022-10-31T07:10:40;4.82;;;2.17;;
26965;SDS011;14522;52.068;4.414;2022-10-31T07:13:12;5.13;;;1.83;;
26965;SDS011;14522;52.068;4.414;2022-10-31T07:15:39;2.60;;;1.70;;
26965;SDS011;14522;52.068;4.414;2022-10-31T07:18:06;2.42;;;1.35;;
26965;SDS011;14522;52.068;4.414;2022-10-31T07:20:33;3.47;;;2.00;;
26965;SDS011;14522;52.068;4.414;2022-10-31T07:23:00;4.82;;;2.80;;
26965;SDS011;14522;52.068;4.414;2022-10-31T07:25:27;3.88;;;2.20;;
26965;SDS011;14522;52.068;4.414;2022-10-31T07:27:53;2.95;;;2.00;;
26965;SDS011;14522;52.068;4.414;2022-10-31T07:30:20;3.35;;;2.22;;
26965;SDS011;14522;52.068;4.414;2022-10-31T07:32:50;2.83;;;1.95;;
26965;SDS011;14522;52.068;4.414;2022-10-31T07:35:17;4.63;;;2.45;;
26965;SDS011;14522;52.068;4.414;2022-10-31T07:37:44;3.63;;;2.45;;
26965;SDS011;14522;52.068;4.414;2022-10-31T07:40:10;4.13;;;2.97;;
26965;SDS011;14522;52.068;4.414;2022-10-31T07:42:37;4.80;;;2.85;;
26965;SDS011;14522;52.068;4.414;2022-10-31T07:45:04;10.57;;;6.07;;
26965;SDS011;14522;52.068;4.414;2022-10-31T07:47:38;13.45;;;6.38;;
26965;SDS011;14522;52.068;4.414;2022-10-31T07:50:04;13.23;;;7.30;;
26965;SDS011;14522;52.068;4.414;2022-10-31T07:52:31;12.40;;;6.47;;
26965;SDS011;14522;52.068;4.414;2022-10-31T07:54:57;12.13;;;7.40;;
26965;SDS011;14522;52.068;4.414;2022-10-31T07:57:23;9.85;;;5.65;;
26965;SDS011;14522;52.068;4.414;2022-10-31T07:59:50;8.25;;;4.38;;
26965;SDS011;14522;52.068;4.414;2022-10-31T08:02:17;11.75;;;7.85;;
26965;SDS011;14522;52.068;4.414;2022-10-31T08:04:43;10.48;;;7.13;;
26965;SDS011;14522;52.068;4.414;2022-10-31T08:07:09;8.73;;;4.95;;
26965;SDS011;14522;52.068;4.414;2022-10-31T08:09:36;11.77;;;5.75;;
26965;SDS011;14522;52.068;4.414;2022-10-31T08:12:02;9.23;;;5.43;;
26965;SDS011;14522;52.068;4.414;2022-10-31T08:14:28;12.82;;;6.65;;
26965;SDS011;14522;52.068;4.414;2022-10-31T08:16:55;9.85;;;6.13;;
26965;SDS011;14522;52.068;4.414;2022-10-31T08:19:21;13.80;;;7.15;;
26965;SDS011;14522;52.068;4.414;2022-10-31T08:21:51;11.48;;;7.60;;
26965;SDS011;14522;52.068;4.414;2022-10-31T08:24:18;13.20;;;6.97;;
26965;SDS011;14522;52.068;4.414;2022-10-31T08:26:44;8.55;;;5.88;;
26965;SDS011;14522;52.068;4.414;2022-10-31T08:29:10;11.43;;;6.97;;
26965;SDS011;14522;52.068;4.414;2022-10-31T08:31:37;12.00;;;6.30;;
26965;SDS011;14522;52.068;4.414;2022-10-31T08:34:08;6.32;;;3.40;;
26965;SDS011;14522;52.068;4.414;2022-10-31T08:36:34;11.30;;;8.20;;
26965;SDS011;14522;52.068;4.414;2022-10-31T08:39:00;14.75;;;8.50;;
26965;SDS011;14522;52.068;4.414;2022-10-31T08:41:27;12.13;;;6.05;;
26965;SDS011;14522;52.068;4.414;2022-10-31T08:43:53;10.68;;;7.35;;
26965;SDS011;14522;52.068;4.414;2022-10-31T08:46:20;13.07;;;7.88;;
26965;SDS011;14522;52.068;4.414;2022-10-31T08:48:49;12.60;;;8.57;;
26965;SDS011;14522;52.068;4.414;2022-10-31T08:51:16;16.65;;;9.10;;
26965;SDS011;14522;52.068;4.414;2022-10-31T08:53:42;9.52;;;5.75;;
26965;SDS011;14522;52.068;4.414;2022-10-31T08:56:08;15.65;;;7.78;;
26965;SDS011;14522;52.068;4.414;2022-10-31T08:58:34;9.27;;;6.32;;
26965;SDS011;14522;52.068;4.414;2022-10-31T09:01:05;12.57;;;8.30;;
26965;SDS011;14522;52.068;4.414;2022-10-31T09:03:32;10.13;;;7.25;;
26965;SDS011;14522;52.068;4.414;2022-10-31T09:05:59;13.23;;;7.88;;
26965;SDS011;14522;52.068;4.414;2022-10-31T09:08:25;15.48;;;9.35;;
26965;SDS011;14522;52.068;4.414;2022-10-31T09:10:52;11.20;;;4.95;;
26965;SDS011;14522;52.068;4.414;2022-10-31T09:13:21;7.25;;;4.82;;
26965;SDS011;14522;52.068;4.414;2022-10-31T09:15:53;9.60;;;5.85;;
26965;SDS011;14522;52.068;4.414;2022-10-31T09:18:20;8.80;;;6.07;;
26965;SDS011;14522;52.068;4.414;2022-10-31T09:20:47;10.88;;;7.47;;
26965;SDS011;14522;52.068;4.414;2022-10-31T09:23:18;10.55;;;6.28;;
26965;SDS011;14522;52.068;4.414;2022-10-31T09:25:45;6.05;;;3.65;;
26965;SDS011;14522;52.068;4.414;2022-10-31T09:28:18;14.10;;;7.78;;
26965;SDS011;14522;52.068;4.414;2022-10-31T09:30:45;9.05;;;4.43;;
26965;SDS011;14522;52.068;4.414;2022-10-31T09:33:12;7.93;;;4.78;;
26965;SDS011;14522;52.068;4.414;2022-10-31T09:35:39;13.85;;;9.52;;
26965;SDS011;14522;52.068;4.414;2022-10-31T09:38:08;12.48;;;7.68;;
26965;SDS011;14522;52.068;4.414;2022-10-31T09:40:38;16.13;;;9.77;;
26965;SDS011;14522;52.068;4.414;2022-10-31T09:43:11;17.00;;;10.35;;
26965;SDS011;14522;52.068;4.414;2022-10-31T09:51:00;13.07;;;7.90;;
26965;SDS011;14522;52.068;4.414;2022-10-31T09:55:53;14.70;;;9.60;;
26965;SDS011;14522;52.068;4.414;2022-10-31T09:58:22;14.10;;;9.20;;
26965;SDS011;14522;52.068;4.414;2022-10-31T10:00:49;17.48;;;8.45;;
26965;SDS011;14522;52.068;4.414;2022-10-31T10:08:20;11.52;;;7.63;;
26965;SDS011;14522;52.068;4.414;2022-10-31T10:10:49;11.85;;;8.57;;
26965;SDS011;14522;52.068;4.414;2022-10-31T10:18:50;12.57;;;8.15;;
26965;SDS011;14522;52.068;4.414;2022-10-31T10:24:03;13.35;;;8.57;;
26965;SDS011;14522;52.068;4.414;2022-10-31T10:26:34;15.73;;;8.05;;
26965;SDS011;14522;52.068;4.414;2022-10-31T10:29:16;15.55;;;8.60;;
26965;SDS011;14522;52.068;4.414;2022-10-31T10:31:44;11.23;;;6.88;;
26965;SDS011;14522;52.068;4.414;2022-10-31T10:36:42;16.27;;;9.15;;
26965;SDS011;14522;52.068;4.414;2022-10-31T10:39:15;17.85;;;9.45;;
26965;SDS011;14522;52.068;4.414;2022-10-31T10:41:44;12.25;;;7.93;;
26965;SDS011;14522;52.068;4.414;2022-10-31T10:44:11;16.60;;;8.13;;
26965;SDS011;14522;52.068;4.414;2022-10-31T10:46:48;14.73;;;8.73;;
26965;SDS011;14522;52.068;4.414;2022-10-31T10:49:45;11.57;;;7.00;;
26965;SDS011;14522;52.068;4.414;2022-10-31T10:55:14;12.23;;;7.78;;
26965;SDS011;14522;52.068;4.414;2022-10-31T10:57:49;10.75;;;6.20;;
26965;SDS011;14522;52.068;4.414;2022-10-31T11:00:24;11.40;;;6.63;;
26965;SDS011;14522;52.068;4.414;2022-10-31T11:02:50;5.80;;;3.13;;
26965;SDS011;14522;52.068;4.414;2022-10-31T11:05:39;9.95;;;4.90;;
26965;SDS011;14522;52.068;4.414;2022-10-31T11:08:04;15.30;;;8.77;;
26965;SDS011;14522;52.068;4.414;2022-10-31T11:10:31;11.38;;;6.18;;
26965;SDS011;14522;52.068;4.414;2022-10-31T11:15:30;17.50;;;9.02;;
26965;SDS011;14522;52.068;4.414;2022-10-31T11:17:57;19.77;;;9.93;;
26965;SDS011;14522;52.068;4.414;2022-10-31T11:20:25;20.27;;;9.60;;
26965;SDS011;14522;52.068;4.414;2022-10-31T11:23:00;16.17;;;7.95;;
26965;SDS011;14522;52.068;4.414;2022-10-31T11:25:27;15.95;;;8.27;;
26965;SDS011;14522;52.068;4.414;2022-10-31T11:28:00;17.55;;;10.32;;
26965;SDS011;14522;52.068;4.414;2022-10-31T11:30:27;11.50;;;6.95;;
26965;SDS011;14522;52.068;4.414;2022-10-31T11:32:54;21.42;;;11.02;;
26965;SDS011;14522;52.068;4.414;2022-10-31T11:35:20;14.50;;;6.20;;
26965;SDS011;14522;52.068;4.414;2022-10-31T11:37:49;18.05;;;10.82;;
26965;SDS011;14522;52.068;4.414;2022-10-31T11:40:20;17.88;;;10.50;;
26965;SDS011;14522;52.068;4.414;2022-10-31T11:42:47;19.95;;;10.77;;
26965;SDS011;14522;52.068;4.414;2022-10-31T11:45:32;12.32;;;7.97;;
26965;SDS011;14522;52.068;4.414;2022-10-31T11:48:00;8.63;;;3.60;;
26965;SDS011;14522;52.068;4.414;2022-10-31T11:50:31;16.23;;;8.90;;
26965;SDS011;14522;52.068;4.414;2022-10-31T11:52:58;16.08;;;7.95;;
26965;SDS011;14522;52.068;4.414;2022-10-31T11:55:38;15.02;;;6.40;;
26965;SDS011;14522;52.068;4.414;2022-10-31T11:58:19;9.02;;;4.88;;
26965;SDS011;14522;52.068;4.414;2022-10-31T12:00:48;20.00;;;10.20;;
26965;SDS011;14522;52.068;4.414;2022-10-31T12:03:20;24.35;;;10.88;;
26965;SDS011;14522;52.068;4.414;2022-10-31T12:05:55;19.80;;;10.65;;
26965;SDS011;14522;52.068;4.414;2022-10-31T12:08:23;20.80;;;9.80;;
26965;SDS011;14522;52.068;4.414;2022-10-31T12:10:59;20.48;;;10.98;;
26965;SDS011;14522;52.068;4.414;2022-10-31T12:13:37;22.88;;;12.73;;
26965;SDS011;14522;52.068;4.414;2022-10-31T12:23:50;24.58;;;11.90;;
26965;SDS011;14522;52.068;4.414;2022-10-31T12:29:09;19.58;;;11.57;;
26965;SDS011;14522;52.068;4.414;2022-10-31T12:36:58;9.02;;;5.43;;
26965;SDS011;14522;52.068;4.414;2022-10-31T12:47:26;27.85;;;14.68;;
26965;SDS011;14522;52.068;4.414;2022-10-31T12:52:35;30.60;;;14.85;;
26965;SDS011;14522;52.068;4.414;2022-10-31T12:55:16;26.58;;;14.23;;
26965;SDS011;14522;52.068;4.414;2022-10-31T12:57:46;26.65;;;14.27;;
26965;SDS011;14522;52.068;4.414;2022-10-31T13:07:49;24.25;;;12.95;;
26965;SDS011;14522;52.068;4.414;2022-10-31T13:10:54;25.20;;;12.63;;
26965;SDS011;14522;52.068;4.414;2022-10-31T13:13:16;27.10;;;14.45;;
26965;SDS011;14522;52.068;4.414;2022-10-31T13:15:48;31.10;;;15.52;;
26965;SDS011;14522;52.068;4.414;2022-10-31T13:18:22;23.70;;;11.52;;
26965;SDS011;14522;52.068;4.414;2022-10-31T13:20:51;25.30;;;15.18;;
26965;SDS011;14522;52.068;4.414;2022-10-31T13:28:35;28.33;;;14.95;;
26965;SDS011;14522;52.068;4.414;2022-10-31T13:31:02;24.45;;;12.80;;
26965;SDS011;14522;52.068;4.414;2022-10-31T13:33:30;26.05;;;15.23;;
26965;SDS011;14522;52.068;4.414;2022-10-31T13:41:13;28.55;;;16.10;;
26965;SDS011;14522;52.068;4.414;2022-10-31T13:46:22;24.27;;;14.68;;
26965;SDS011;14522;52.068;4.414;2022-10-31T13:48:48;23.60;;;10.43;;
26965;SDS011;14522;52.068;4.414;2022-10-31T13:51:23;29.75;;;16.13;;
26965;SDS011;14522;52.068;4.414;2022-10-31T13:56:49;24.63;;;13.30;;
26965;SDS011;14522;52.068;4.414;2022-10-31T14:01:34;35.10;;;18.73;;
26965;SDS011;14522;52.068;4.414;2022-10-31T14:04:13;38.38;;;18.02;;
26965;SDS011;14522;52.068;4.414;2022-10-31T14:12:07;32.75;;;16.83;;
26965;SDS011;14522;52.068;4.414;2022-10-31T14:14:57;30.48;;;15.40;;
26965;SDS011;14522;52.068;4.414;2022-10-31T14:17:21;34.70;;;19.40;;
26965;SDS011;14522;52.068;4.414;2022-10-31T14:20:36;33.38;;;18.38;;
26965;SDS011;14522;52.068;4.414;2022-10-31T14:22:36;29.98;;;17.63;;
26965;SDS011;14522;52.068;4.414;2022-10-31T14:27:53;40.50;;;18.55;;
26965;SDS011;14522;52.068;4.414;2022-10-31T14:30:20;32.50;;;17.52;;
26965;SDS011;14522;52.068;4.414;2022-10-31T14:32:52;31.02;;;15.85;;
26965;SDS011;14522;52.068;4.414;2022-10-31T14:35:19;29.77;;;16.90;;
26965;SDS011;14522;52.068;4.414;2022-10-31T14:38:09;28.10;;;17.33;;
26965;SDS011;14522;52.068;4.414;2022-10-31T14:43:42;28.63;;;16.85;;
26965;SDS011;14522;52.068;4.414;2022-10-31T14:46:18;33.37;;;19.17;;
26965;SDS011;14522;52.068;4.414;2022-10-31T14:51:21;37.47;;;19.00;;
26965;SDS011;14522;52.068;4.414;2022-10-31T14:53:48;38.63;;;21.08;;
26965;SDS011;14522;52.068;4.414;2022-10-31T14:56:26;33.15;;;19.20;;
26965;SDS011;14522;52.068;4.414;2022-10-31T14:58:54;36.20;;;18.92;;
26965;SDS011;14522;52.068;4.414;2022-10-31T15:01:25;33.03;;;19.63;;
26965;SDS011;14522;52.068;4.414;2022-10-31T15:03:55;37.28;;;20.92;;
26965;SDS011;14522;52.068;4.414;2022-10-31T15:06:44;34.95;;;20.77;;
26965;SDS011;14522;52.068;4.414;2022-10-31T15:09:22;37.47;;;19.58;;
26965;SDS011;14522;52.068;4.414;2022-10-31T15:11:48;38.80;;;21.10;;
26965;SDS011;14522;52.068;4.414;2022-10-31T15:14:28;36.75;;;21.00;;
26965;SDS011;14522;52.068;4.414;2022-10-31T15:16:58;35.83;;;21.00;;
26965;SDS011;14522;52.068;4.414;2022-10-31T15:19:29;35.45;;;20.20;;
26965;SDS011;14522;52.068;4.414;2022-10-31T15:21:56;35.65;;;19.48;;
26965;SDS011;14522;52.068;4.414;2022-10-31T15:24:24;35.53;;;20.38;;
26965;SDS011;14522;52.068;4.414;2022-10-31T15:26:51;33.05;;;18.23;;
26965;SDS011;14522;52.068;4.414;2022-10-31T15:29:19;34.00;;;19.52;;
26965;SDS011;14522;52.068;4.414;2022-10-31T15:31:57;40.53;;;19.65;;
26965;SDS011;14522;52.068;4.414;2022-10-31T15:34:29;34.22;;;19.77;;
26965;SDS011;14522;52.068;4.414;2022-10-31T15:36:58;35.97;;;20.10;;
26965;SDS011;14522;52.068;4.414;2022-10-31T15:39:25;38.25;;;20.60;;
26965;SDS011;14522;52.068;4.414;2022-10-31T15:44:36;41.95;;;20.38;;
26965;SDS011;14522;52.068;4.414;2022-10-31T15:47:03;32.80;;;18.65;;
26965;SDS011;14522;52.068;4.414;2022-10-31T15:49:35;42.42;;;20.73;;
26965;SDS011;14522;52.068;4.414;2022-10-31T15:52:26;37.90;;;18.92;;
26965;SDS011;14522;52.068;4.414;2022-10-31T15:54:50;30.65;;;18.45;;
26965;SDS011;14522;52.068;4.414;2022-10-31T15:57:16;36.03;;;18.67;;
26965;SDS011;14522;52.068;4.414;2022-10-31T15:59:45;36.65;;;17.88;;
26965;SDS011;14522;52.068;4.414;2022-10-31T16:02:12;35.20;;;18.95;;
26965;SDS011;14522;52.068;4.414;2022-10-31T16:07:38;37.63;;;17.35;;
26965;SDS011;14522;52.068;4.414;2022-10-31T16:10:23;46.75;;;19.50;;
26965;SDS011;14522;52.068;4.414;2022-10-31T16:12:51;34.97;;;17.88;;
26965;SDS011;14522;52.068;4.414;2022-10-31T16:15:19;33.65;;;18.20;;
26965;SDS011;14522;52.068;4.414;2022-10-31T16:17:49;36.40;;;18.35;;
26965;SDS011;14522;52.068;4.414;2022-10-31T16:20:24;40.33;;;17.70;;
26965;SDS011;14522;52.068;4.414;2022-10-31T16:22:51;38.85;;;18.58;;
26965;SDS011;14522;52.068;4.414;2022-10-31T16:25:25;36.70;;;17.98;;
26965;SDS011;14522;52.068;4.414;2022-10-31T16:27:52;39.35;;;19.85;;
26965;SDS011;14522;52.068;4.414;2022-10-31T16:30:28;36.55;;;19.42;;
26965;SDS011;14522;52.068;4.414;2022-10-31T16:32:56;35.30;;;19.10;;
26965;SDS011;14522;52.068;4.414;2022-10-31T16:35:37;38.35;;;19.33;;
26965;SDS011;14522;52.068;4.414;2022-10-31T16:38:04;32.03;;;17.98;;
26965;SDS011;14522;52.068;4.414;2022-10-31T16:40:31;35.28;;;18.05;;
26965;SDS011;14522;52.068;4.414;2022-10-31T16:42:58;37.85;;;18.50;;
26965;SDS011;14522;52.068;4.414;2022-10-31T16:45:28;31.27;;;13.25;;
26965;SDS011;14522;52.068;4.414;2022-10-31T16:48:01;32.25;;;16.27;;
26965;SDS011;14522;52.068;4.414;2022-10-31T16:50:28;27.00;;;14.77;;
26965;SDS011;14522;52.068;4.414;2022-10-31T16:52:55;29.33;;;15.32;;
26965;SDS011;14522;52.068;4.414;2022-10-31T16:55:43;30.85;;;15.32;;